sensor_id;sensor_type;location;lat;lon;timestamp;temperature;humidity
3466;DHT22;1747;48.884;9.160;2022-08-04T00:02:26;23.70;90.30
3466;DHT22;1747;48.884;9.160;2022-08-04T00:04:59;23.70;90.50
3466;DHT22;1747;48.884;9.160;2022-08-04T00:07:37;23.70;90.30
3466;DHT22;1747;48.884;9.160;2022-08-04T00:10:07;23.70;90.80
3466;DHT22;1747;48.884;9.160;2022-08-04T00:12:37;23.50;91.10
3466;DHT22;1747;48.884;9.160;2022-08-04T00:15:10;23.40;91.40
3466;DHT22;1747;48.884;9.160;2022-08-04T00:17:39;23.30;91.70
3466;DHT22;1747;48.884;9.160;2022-08-04T00:20:08;23.20;92.00
3466;DHT22;1747;48.884;9.160;2022-08-04T00:22:38;23.10;92.10
3466;DHT22;1747;48.884;9.160;2022-08-04T00:25:07;23.10;92.30
3466;DHT22;1747;48.884;9.160;2022-08-04T00:27:34;23.00;92.60
3466;DHT22;1747;48.884;9.160;2022-08-04T00:30:02;23.00;92.90
3466;DHT22;1747;48.884;9.160;2022-08-04T00:32:30;22.90;93.30
3466;DHT22;1747;48.884;9.160;2022-08-04T00:34:58;22.90;93.60
3466;DHT22;1747;48.884;9.160;2022-08-04T00:37:26;22.80;94.00
3466;DHT22;1747;48.884;9.160;2022-08-04T00:39:54;22.80;94.40
3466;DHT22;1747;48.884;9.160;2022-08-04T00:42:36;22.80;94.50
3466;DHT22;1747;48.884;9.160;2022-08-04T00:48:31;22.80;94.80
3466;DHT22;1747;48.884;9.160;2022-08-04T00:51:10;22.90;94.70
3466;DHT22;1747;48.884;9.160;2022-08-04T00:53:53;23.00;95.00
3466;DHT22;1747;48.884;9.160;2022-08-04T00:56:36;23.10;95.00
3466;DHT22;1747;48.884;9.160;2022-08-04T00:59:16;23.10;94.90
3466;DHT22;1747;48.884;9.160;2022-08-04T01:01:54;23.10;94.70
3466;DHT22;1747;48.884;9.160;2022-08-04T01:04:37;23.20;94.60
3466;DHT22;1747;48.884;9.160;2022-08-04T01:07:19;23.20;94.50
3466;DHT22;1747;48.884;9.160;2022-08-04T01:09:53;23.30;94.70
3466;DHT22;1747;48.884;9.160;2022-08-04T01:12:41;23.30;94.70
3466;DHT22;1747;48.884;9.160;2022-08-04T01:15:17;23.30;95.10
3466;DHT22;1747;48.884;9.160;2022-08-04T01:17:58;23.20;95.10
3466;DHT22;1747;48.884;9.160;2022-08-04T01:20:33;23.30;95.00
3466;DHT22;1747;48.884;9.160;2022-08-04T01:26:32;23.20;95.30
3466;DHT22;1747;48.884;9.160;2022-08-04T01:29:07;23.20;95.10
3466;DHT22;1747;48.884;9.160;2022-08-04T01:31:51;23.30;95.10
3466;DHT22;1747;48.884;9.160;2022-08-04T01:34:21;23.30;95.10
3466;DHT22;1747;48.884;9.160;2022-08-04T01:36:56;23.30;95.20
3466;DHT22;1747;48.884;9.160;2022-08-04T01:39:30;23.30;95.30
3466;DHT22;1747;48.884;9.160;2022-08-04T01:42:08;23.30;95.30
3466;DHT22;1747;48.884;9.160;2022-08-04T01:44:39;23.30;95.60
3466;DHT22;1747;48.884;9.160;2022-08-04T01:47:07;23.20;95.90
3466;DHT22;1747;48.884;9.160;2022-08-04T01:49:36;23.10;96.00
3466;DHT22;1747;48.884;9.160;2022-08-04T01:52:07;23.00;96.20
3466;DHT22;1747;48.884;9.160;2022-08-04T01:54:37;22.90;96.30
3466;DHT22;1747;48.884;9.160;2022-08-04T01:57:05;22.90;96.50
3466;DHT22;1747;48.884;9.160;2022-08-04T01:59:33;22.80;96.50
3466;DHT22;1747;48.884;9.160;2022-08-04T02:02:03;22.90;96.50
3466;DHT22;1747;48.884;9.160;2022-08-04T02:04:31;22.80;97.00
3466;DHT22;1747;48.884;9.160;2022-08-04T02:07:11;22.80;97.20
3466;DHT22;1747;48.884;9.160;2022-08-04T02:09:46;22.70;97.20
3466;DHT22;1747;48.884;9.160;2022-08-04T02:12:24;22.70;97.50
3466;DHT22;1747;48.884;9.160;2022-08-04T02:14:56;22.60;97.30
3466;DHT22;1747;48.884;9.160;2022-08-04T02:17:30;22.60;97.30
3466;DHT22;1747;48.884;9.160;2022-08-04T02:20:05;22.60;97.10
3466;DHT22;1747;48.884;9.160;2022-08-04T02:22:33;22.50;97.40
3466;DHT22;1747;48.884;9.160;2022-08-04T02:25:05;22.50;97.20
3466;DHT22;1747;48.884;9.160;2022-08-04T02:27:42;22.60;97.40
3466;DHT22;1747;48.884;9.160;2022-08-04T02:30:13;22.60;97.50
3466;DHT22;1747;48.884;9.160;2022-08-04T02:32:43;22.50;97.60
3466;DHT22;1747;48.884;9.160;2022-08-04T02:35:14;22.50;97.50
3466;DHT22;1747;48.884;9.160;2022-08-04T02:37:46;22.50;97.90
3466;DHT22;1747;48.884;9.160;2022-08-04T02:40:19;22.40;98.40
3466;DHT22;1747;48.884;9.160;2022-08-04T02:42:46;22.30;98.60
3466;DHT22;1747;48.884;9.160;2022-08-04T02:45:15;22.30;98.60
3466;DHT22;1747;48.884;9.160;2022-08-04T02:47:47;22.20;98.60
3466;DHT22;1747;48.884;9.160;2022-08-04T02:50:17;22.30;98.90
3466;DHT22;1747;48.884;9.160;2022-08-04T02:52:46;22.20;99.10
3466;DHT22;1747;48.884;9.160;2022-08-04T02:55:16;22.10;99.20
3466;DHT22;1747;48.884;9.160;2022-08-04T02:57:44;22.10;99.30
3466;DHT22;1747;48.884;9.160;2022-08-04T03:00:15;22.10;99.40
3466;DHT22;1747;48.884;9.160;2022-08-04T03:02:57;22.00;99.80
3466;DHT22;1747;48.884;9.160;2022-08-04T03:05:30;22.00;99.90
3466;DHT22;1747;48.884;9.160;2022-08-04T03:08:14;22.00;99.90
3466;DHT22;1747;48.884;9.160;2022-08-04T03:20:42;21.50;99.90
3466;DHT22;1747;48.884;9.160;2022-08-04T03:23:35;21.30;99.90
3466;DHT22;1747;48.884;9.160;2022-08-04T03:26:24;21.20;99.90
3466;DHT22;1747;48.884;9.160;2022-08-04T03:32:56;21.00;99.90
3466;DHT22;1747;48.884;9.160;2022-08-04T05:03:20;21.10;99.90
3466;DHT22;1747;48.884;9.160;2022-08-04T05:06:09;21.30;99.90
3466;DHT22;1747;48.884;9.160;2022-08-04T05:08:53;21.40;99.90
3466;DHT22;1747;48.884;9.160;2022-08-04T05:14:29;21.70;99.90
3466;DHT22;1747;48.884;9.160;2022-08-04T05:17:02;21.90;99.90
3466;DHT22;1747;48.884;9.160;2022-08-04T05:19:42;22.00;99.90
3466;DHT22;1747;48.884;9.160;2022-08-04T05:22:12;22.10;99.90
3466;DHT22;1747;48.884;9.160;2022-08-04T05:24:45;22.20;99.90
3466;DHT22;1747;48.884;9.160;2022-08-04T05:27:15;22.30;99.90
3466;DHT22;1747;48.884;9.160;2022-08-04T05:29:49;22.40;99.90
3466;DHT22;1747;48.884;9.160;2022-08-04T05:32:21;22.50;99.90
3466;DHT22;1747;48.884;9.160;2022-08-04T05:34:54;22.60;99.90
3466;DHT22;1747;48.884;9.160;2022-08-04T05:37:26;22.70;99.90
3466;DHT22;1747;48.884;9.160;2022-08-04T05:39:57;22.70;99.90
3466;DHT22;1747;48.884;9.160;2022-08-04T05:42:25;22.80;99.90
3466;DHT22;1747;48.884;9.160;2022-08-04T05:44:53;22.90;99.90
3466;DHT22;1747;48.884;9.160;2022-08-04T05:47:20;23.00;99.90
3466;DHT22;1747;48.884;9.160;2022-08-04T05:49:49;23.10;99.90
3466;DHT22;1747;48.884;9.160;2022-08-04T05:52:16;23.20;99.90
3466;DHT22;1747;48.884;9.160;2022-08-04T05:54:44;23.20;99.90
3466;DHT22;1747;48.884;9.160;2022-08-04T05:57:12;23.30;99.90
3466;DHT22;1747;48.884;9.160;2022-08-04T05:59:41;23.40;99.90
3466;DHT22;1747;48.884;9.160;2022-08-04T06:02:13;23.60;99.90
3466;DHT22;1747;48.884;9.160;2022-08-04T06:04:41;23.60;99.90
3466;DHT22;1747;48.884;9.160;2022-08-04T06:07:11;23.70;99.90
3466;DHT22;1747;48.884;9.160;2022-08-04T06:09:39;23.80;99.90
3466;DHT22;1747;48.884;9.160;2022-08-04T06:12:09;23.80;99.90
3466;DHT22;1747;48.884;9.160;2022-08-04T06:14:39;23.90;99.90
3466;DHT22;1747;48.884;9.160;2022-08-04T06:17:08;24.00;99.90
3466;DHT22;1747;48.884;9.160;2022-08-04T06:19:39;24.10;99.90
3466;DHT22;1747;48.884;9.160;2022-08-04T06:22:10;24.20;99.90
3466;DHT22;1747;48.884;9.160;2022-08-04T06:24:38;24.20;99.90
3466;DHT22;1747;48.884;9.160;2022-08-04T06:27:08;24.30;99.90
3466;DHT22;1747;48.884;9.160;2022-08-04T06:29:35;24.30;99.90
3466;DHT22;1747;48.884;9.160;2022-08-04T06:32:06;24.40;99.90
3466;DHT22;1747;48.884;9.160;2022-08-04T06:34:50;24.40;99.90
3466;DHT22;1747;48.884;9.160;2022-08-04T06:37:20;24.60;99.80
3466;DHT22;1747;48.884;9.160;2022-08-04T06:39:49;24.70;99.50
3466;DHT22;1747;48.884;9.160;2022-08-04T06:42:17;24.90;99.30
3466;DHT22;1747;48.884;9.160;2022-08-04T06:44:48;24.90;99.10
3466;DHT22;1747;48.884;9.160;2022-08-04T06:47:16;25.00;98.90
3466;DHT22;1747;48.884;9.160;2022-08-04T06:49:47;25.10;98.60
3466;DHT22;1747;48.884;9.160;2022-08-04T06:52:16;25.20;98.70
3466;DHT22;1747;48.884;9.160;2022-08-04T06:54:45;25.20;98.40
3466;DHT22;1747;48.884;9.160;2022-08-04T06:57:14;25.30;98.10
3466;DHT22;1747;48.884;9.160;2022-08-04T06:59:42;25.50;97.90
3466;DHT22;1747;48.884;9.160;2022-08-04T07:02:14;25.60;98.00
3466;DHT22;1747;48.884;9.160;2022-08-04T07:04:42;25.80;97.70
3466;DHT22;1747;48.884;9.160;2022-08-04T07:07:10;26.00;97.50
3466;DHT22;1747;48.884;9.160;2022-08-04T07:09:38;26.10;97.10
3466;DHT22;1747;48.884;9.160;2022-08-04T07:12:07;26.20;96.60
3466;DHT22;1747;48.884;9.160;2022-08-04T07:14:34;26.30;96.60
3466;DHT22;1747;48.884;9.160;2022-08-04T07:17:03;26.50;96.30
3466;DHT22;1747;48.884;9.160;2022-08-04T07:19:30;26.60;96.70
3466;DHT22;1747;48.884;9.160;2022-08-04T07:21:59;26.80;96.20
3466;DHT22;1747;48.884;9.160;2022-08-04T07:24:29;26.90;95.80
3466;DHT22;1747;48.884;9.160;2022-08-04T07:26:56;27.10;95.30
3466;DHT22;1747;48.884;9.160;2022-08-04T07:29:25;27.10;95.00
3466;DHT22;1747;48.884;9.160;2022-08-04T07:31:53;27.30;94.40
3466;DHT22;1747;48.884;9.160;2022-08-04T07:34:20;27.50;93.30
3466;DHT22;1747;48.884;9.160;2022-08-04T07:36:49;27.70;93.10
3466;DHT22;1747;48.884;9.160;2022-08-04T07:39:17;27.80;92.60
3466;DHT22;1747;48.884;9.160;2022-08-04T07:41:45;27.90;92.30
3466;DHT22;1747;48.884;9.160;2022-08-04T07:44:13;28.10;92.10
3466;DHT22;1747;48.884;9.160;2022-08-04T07:46:44;28.20;92.00
3466;DHT22;1747;48.884;9.160;2022-08-04T07:49:12;28.20;91.40
3466;DHT22;1747;48.884;9.160;2022-08-04T07:51:39;28.30;90.50
3466;DHT22;1747;48.884;9.160;2022-08-04T07:54:07;28.40;91.40
3466;DHT22;1747;48.884;9.160;2022-08-04T07:56:37;28.60;91.40
3466;DHT22;1747;48.884;9.160;2022-08-04T07:59:04;28.70;90.10
3466;DHT22;1747;48.884;9.160;2022-08-04T08:01:31;28.90;90.80
3466;DHT22;1747;48.884;9.160;2022-08-04T08:04:00;29.10;90.10
3466;DHT22;1747;48.884;9.160;2022-08-04T08:06:28;29.20;90.40
3466;DHT22;1747;48.884;9.160;2022-08-04T08:08:55;29.30;89.10
3466;DHT22;1747;48.884;9.160;2022-08-04T08:11:22;29.40;89.30
3466;DHT22;1747;48.884;9.160;2022-08-04T08:13:49;29.50;88.60
3466;DHT22;1747;48.884;9.160;2022-08-04T08:16:17;29.70;87.50
3466;DHT22;1747;48.884;9.160;2022-08-04T08:18:45;29.70;87.40
3466;DHT22;1747;48.884;9.160;2022-08-04T08:21:14;29.90;86.40
3466;DHT22;1747;48.884;9.160;2022-08-04T08:23:40;30.00;86.30
3466;DHT22;1747;48.884;9.160;2022-08-04T08:26:07;30.10;86.80
3466;DHT22;1747;48.884;9.160;2022-08-04T08:28:35;30.30;85.10
3466;DHT22;1747;48.884;9.160;2022-08-04T08:31:02;30.40;84.70
3466;DHT22;1747;48.884;9.160;2022-08-04T08:33:29;30.50;85.30
3466;DHT22;1747;48.884;9.160;2022-08-04T08:36:00;30.60;84.00
3466;DHT22;1747;48.884;9.160;2022-08-04T08:38:37;30.60;81.80
3466;DHT22;1747;48.884;9.160;2022-08-04T08:41:20;30.70;82.60
3466;DHT22;1747;48.884;9.160;2022-08-04T08:44:04;30.70;81.00
3466;DHT22;1747;48.884;9.160;2022-08-04T08:46:57;30.80;80.50
3466;DHT22;1747;48.884;9.160;2022-08-04T08:49:46;31.00;80.90
3466;DHT22;1747;48.884;9.160;2022-08-04T08:52:24;31.10;80.50
3466;DHT22;1747;48.884;9.160;2022-08-04T08:55:14;31.20;79.60
3466;DHT22;1747;48.884;9.160;2022-08-04T08:57:54;31.40;78.20
3466;DHT22;1747;48.884;9.160;2022-08-04T09:00:32;31.50;77.80
3466;DHT22;1747;48.884;9.160;2022-08-04T09:03:37;31.50;79.10
3466;DHT22;1747;48.884;9.160;2022-08-04T09:06:27;31.70;78.50
3466;DHT22;1747;48.884;9.160;2022-08-04T09:09:26;31.80;77.10
3466;DHT22;1747;48.884;9.160;2022-08-04T09:12:06;31.90;76.60
3466;DHT22;1747;48.884;9.160;2022-08-04T09:14:41;32.00;75.80
3466;DHT22;1747;48.884;9.160;2022-08-04T09:17:22;32.00;76.00
3466;DHT22;1747;48.884;9.160;2022-08-04T09:19:58;32.10;75.90
3466;DHT22;1747;48.884;9.160;2022-08-04T09:22:33;32.10;76.40
3466;DHT22;1747;48.884;9.160;2022-08-04T09:25:05;32.30;75.70
3466;DHT22;1747;48.884;9.160;2022-08-04T09:27:45;32.50;73.50
3466;DHT22;1747;48.884;9.160;2022-08-04T09:30:14;32.50;72.50
3466;DHT22;1747;48.884;9.160;2022-08-04T09:32:51;32.60;73.00
3466;DHT22;1747;48.884;9.160;2022-08-04T09:35:25;32.60;74.00
3466;DHT22;1747;48.884;9.160;2022-08-04T09:38:04;32.90;72.20
3466;DHT22;1747;48.884;9.160;2022-08-04T09:40:36;33.00;72.10
3466;DHT22;1747;48.884;9.160;2022-08-04T09:43:16;33.20;71.10
3466;DHT22;1747;48.884;9.160;2022-08-04T09:45:52;33.20;70.10
3466;DHT22;1747;48.884;9.160;2022-08-04T09:48:29;33.30;70.00
3466;DHT22;1747;48.884;9.160;2022-08-04T09:50:59;33.30;69.30
3466;DHT22;1747;48.884;9.160;2022-08-04T09:53:36;33.50;68.90
3466;DHT22;1747;48.884;9.160;2022-08-04T09:56:12;33.50;69.10
3466;DHT22;1747;48.884;9.160;2022-08-04T09:58:51;33.60;68.30
3466;DHT22;1747;48.884;9.160;2022-08-04T10:01:21;33.70;67.90
3466;DHT22;1747;48.884;9.160;2022-08-04T10:03:50;33.70;68.50
3466;DHT22;1747;48.884;9.160;2022-08-04T10:06:44;33.90;67.60
3466;DHT22;1747;48.884;9.160;2022-08-04T10:09:26;34.10;66.50
3466;DHT22;1747;48.884;9.160;2022-08-04T10:12:04;34.10;67.50
3466;DHT22;1747;48.884;9.160;2022-08-04T10:14:42;34.20;66.80
3466;DHT22;1747;48.884;9.160;2022-08-04T10:17:26;34.30;64.70
3466;DHT22;1747;48.884;9.160;2022-08-04T10:20:06;34.50;63.30
3466;DHT22;1747;48.884;9.160;2022-08-04T10:22:36;34.50;64.50
3466;DHT22;1747;48.884;9.160;2022-08-04T10:25:11;34.60;62.90
3466;DHT22;1747;48.884;9.160;2022-08-04T10:27:45;34.70;62.20
3466;DHT22;1747;48.884;9.160;2022-08-04T10:30:17;34.60;61.90
3466;DHT22;1747;48.884;9.160;2022-08-04T10:32:49;34.60;61.10
3466;DHT22;1747;48.884;9.160;2022-08-04T10:35:21;34.60;61.10
3466;DHT22;1747;48.884;9.160;2022-08-04T10:37:58;34.60;61.30
3466;DHT22;1747;48.884;9.160;2022-08-04T10:40:31;34.70;61.30
3466;DHT22;1747;48.884;9.160;2022-08-04T10:43:15;34.80;61.40
3466;DHT22;1747;48.884;9.160;2022-08-04T10:45:51;35.00;60.80
3466;DHT22;1747;48.884;9.160;2022-08-04T10:48:28;35.20;60.10
3466;DHT22;1747;48.884;9.160;2022-08-04T10:51:05;35.30;61.00
3466;DHT22;1747;48.884;9.160;2022-08-04T10:53:37;35.50;61.00
3466;DHT22;1747;48.884;9.160;2022-08-04T10:56:14;35.70;58.90
3466;DHT22;1747;48.884;9.160;2022-08-04T10:58:45;35.80;58.30
3466;DHT22;1747;48.884;9.160;2022-08-04T11:01:21;35.90;58.70
3466;DHT22;1747;48.884;9.160;2022-08-04T11:03:54;35.90;58.60
3466;DHT22;1747;48.884;9.160;2022-08-04T11:06:23;36.00;58.30
3466;DHT22;1747;48.884;9.160;2022-08-04T11:08:52;36.00;57.30
3466;DHT22;1747;48.884;9.160;2022-08-04T11:11:35;36.00;56.10
3466;DHT22;1747;48.884;9.160;2022-08-04T11:14:07;36.10;54.70
3466;DHT22;1747;48.884;9.160;2022-08-04T11:16:40;36.10;54.10
3466;DHT22;1747;48.884;9.160;2022-08-04T11:19:16;36.00;54.50
3466;DHT22;1747;48.884;9.160;2022-08-04T11:21:52;36.00;55.40
3466;DHT22;1747;48.884;9.160;2022-08-04T11:24:25;36.10;53.20
3466;DHT22;1747;48.884;9.160;2022-08-04T11:26:59;36.00;53.90
3466;DHT22;1747;48.884;9.160;2022-08-04T11:29:31;35.90;54.20
3466;DHT22;1747;48.884;9.160;2022-08-04T11:32:02;35.80;53.80
3466;DHT22;1747;48.884;9.160;2022-08-04T11:34:33;35.80;54.20
3466;DHT22;1747;48.884;9.160;2022-08-04T11:37:05;35.80;55.50
3466;DHT22;1747;48.884;9.160;2022-08-04T11:39:36;35.90;55.00
3466;DHT22;1747;48.884;9.160;2022-08-04T11:42:09;36.00;54.90
3466;DHT22;1747;48.884;9.160;2022-08-04T11:44:42;36.10;56.10
3466;DHT22;1747;48.884;9.160;2022-08-04T11:47:21;36.20;55.50
3466;DHT22;1747;48.884;9.160;2022-08-04T11:49:55;36.40;54.70
3466;DHT22;1747;48.884;9.160;2022-08-04T11:52:24;36.70;55.00
3466;DHT22;1747;48.884;9.160;2022-08-04T11:54:53;36.90;54.40
3466;DHT22;1747;48.884;9.160;2022-08-04T11:57:21;37.00;54.70
3466;DHT22;1747;48.884;9.160;2022-08-04T11:59:48;37.20;53.50
3466;DHT22;1747;48.884;9.160;2022-08-04T12:02:35;37.40;52.80
3466;DHT22;1747;48.884;9.160;2022-08-04T12:05:08;37.70;52.30
3466;DHT22;1747;48.884;9.160;2022-08-04T12:07:47;38.20;52.50
3466;DHT22;1747;48.884;9.160;2022-08-04T12:10:25;38.90;51.00
3466;DHT22;1747;48.884;9.160;2022-08-04T12:13:02;39.30;50.00
3466;DHT22;1747;48.884;9.160;2022-08-04T12:15:38;39.80;49.70
3466;DHT22;1747;48.884;9.160;2022-08-04T12:18:13;40.30;48.50
3466;DHT22;1747;48.884;9.160;2022-08-04T12:20:47;40.70;48.10
3466;DHT22;1747;48.884;9.160;2022-08-04T12:23:19;41.10;47.50
3466;DHT22;1747;48.884;9.160;2022-08-04T12:25:51;41.50;47.00
3466;DHT22;1747;48.884;9.160;2022-08-04T12:28:25;41.90;47.10
3466;DHT22;1747;48.884;9.160;2022-08-04T12:30:59;42.20;46.30
3466;DHT22;1747;48.884;9.160;2022-08-04T12:33:34;42.80;46.80
3466;DHT22;1747;48.884;9.160;2022-08-04T12:36:12;43.00;46.20
3466;DHT22;1747;48.884;9.160;2022-08-04T12:38:46;43.30;45.50
3466;DHT22;1747;48.884;9.160;2022-08-04T12:41:16;43.40;45.70
3466;DHT22;1747;48.884;9.160;2022-08-04T12:43:44;43.30;44.70
3466;DHT22;1747;48.884;9.160;2022-08-04T12:46:19;43.40;45.20
3466;DHT22;1747;48.884;9.160;2022-08-04T12:48:48;43.60;44.70
3466;DHT22;1747;48.884;9.160;2022-08-04T12:51:16;43.80;44.80
3466;DHT22;1747;48.884;9.160;2022-08-04T12:53:44;43.70;43.20
3466;DHT22;1747;48.884;9.160;2022-08-04T12:56:13;43.60;43.10
3466;DHT22;1747;48.884;9.160;2022-08-04T12:58:43;43.60;43.90
3466;DHT22;1747;48.884;9.160;2022-08-04T13:01:11;43.80;43.10
3466;DHT22;1747;48.884;9.160;2022-08-04T13:03:42;43.90;42.50
3466;DHT22;1747;48.884;9.160;2022-08-04T13:06:14;44.20;43.30
3466;DHT22;1747;48.884;9.160;2022-08-04T13:08:44;43.70;43.20
3466;DHT22;1747;48.884;9.160;2022-08-04T13:11:13;44.30;43.00
3466;DHT22;1747;48.884;9.160;2022-08-04T13:13:43;44.50;42.30
3466;DHT22;1747;48.884;9.160;2022-08-04T13:16:11;44.80;42.00
3466;DHT22;1747;48.884;9.160;2022-08-04T13:18:44;45.20;42.50
3466;DHT22;1747;48.884;9.160;2022-08-04T13:21:15;45.60;42.30
3466;DHT22;1747;48.884;9.160;2022-08-04T13:23:44;45.90;42.10
3466;DHT22;1747;48.884;9.160;2022-08-04T13:26:12;46.10;41.30
3466;DHT22;1747;48.884;9.160;2022-08-04T13:28:43;46.40;41.00
3466;DHT22;1747;48.884;9.160;2022-08-04T13:31:13;46.50;41.00
3466;DHT22;1747;48.884;9.160;2022-08-04T13:33:44;46.70;40.70
3466;DHT22;1747;48.884;9.160;2022-08-04T13:36:15;47.00;40.80
3466;DHT22;1747;48.884;9.160;2022-08-04T13:38:47;46.90;40.00
3466;DHT22;1747;48.884;9.160;2022-08-04T13:41:16;46.80;41.30
3466;DHT22;1747;48.884;9.160;2022-08-04T13:43:46;45.90;41.00
3466;DHT22;1747;48.884;9.160;2022-08-04T13:46:17;46.30;41.30
3466;DHT22;1747;48.884;9.160;2022-08-04T13:48:45;46.70;40.30
3466;DHT22;1747;48.884;9.160;2022-08-04T13:51:17;46.90;40.90
3466;DHT22;1747;48.884;9.160;2022-08-04T13:53:54;46.00;39.30
3466;DHT22;1747;48.884;9.160;2022-08-04T13:56:22;46.80;41.70
3466;DHT22;1747;48.884;9.160;2022-08-04T13:58:54;46.90;39.40
3466;DHT22;1747;48.884;9.160;2022-08-04T14:01:24;47.10;40.80
3466;DHT22;1747;48.884;9.160;2022-08-04T14:03:58;47.40;40.60
3466;DHT22;1747;48.884;9.160;2022-08-04T14:06:29;47.50;40.40
3466;DHT22;1747;48.884;9.160;2022-08-04T14:09:00;47.90;40.90
3466;DHT22;1747;48.884;9.160;2022-08-04T14:11:33;47.90;38.40
3466;DHT22;1747;48.884;9.160;2022-08-04T14:14:03;48.10;38.70
3466;DHT22;1747;48.884;9.160;2022-08-04T14:16:54;48.20;38.20
3466;DHT22;1747;48.884;9.160;2022-08-04T14:19:21;48.10;38.30
3466;DHT22;1747;48.884;9.160;2022-08-04T14:21:50;48.10;38.20
3466;DHT22;1747;48.884;9.160;2022-08-04T14:24:22;48.50;38.60
3466;DHT22;1747;48.884;9.160;2022-08-04T14:26:49;49.20;38.50
3466;DHT22;1747;48.884;9.160;2022-08-04T14:29:17;48.80;37.20
3466;DHT22;1747;48.884;9.160;2022-08-04T14:31:47;48.50;39.40
3466;DHT22;1747;48.884;9.160;2022-08-04T14:34:25;48.60;38.80
3466;DHT22;1747;48.884;9.160;2022-08-04T14:36:54;48.40;37.60
3466;DHT22;1747;48.884;9.160;2022-08-04T14:39:36;48.30;38.10
3466;DHT22;1747;48.884;9.160;2022-08-04T14:42:03;48.60;37.40
3466;DHT22;1747;48.884;9.160;2022-08-04T14:44:31;48.60;37.20
3466;DHT22;1747;48.884;9.160;2022-08-04T14:46:57;48.60;37.30
3466;DHT22;1747;48.884;9.160;2022-08-04T14:49:26;48.50;37.40
3466;DHT22;1747;48.884;9.160;2022-08-04T14:51:56;48.50;39.50
3466;DHT22;1747;48.884;9.160;2022-08-04T14:54:28;49.00;37.80
3466;DHT22;1747;48.884;9.160;2022-08-04T14:56:59;48.40;38.30
3466;DHT22;1747;48.884;9.160;2022-08-04T14:59:27;48.60;39.30
3466;DHT22;1747;48.884;9.160;2022-08-04T15:02:05;48.60;37.90
3466;DHT22;1747;48.884;9.160;2022-08-04T15:04:33;48.80;38.40
3466;DHT22;1747;48.884;9.160;2022-08-04T15:07:02;49.20;38.20
3466;DHT22;1747;48.884;9.160;2022-08-04T15:09:30;47.40;38.30
3466;DHT22;1747;48.884;9.160;2022-08-04T15:11:57;46.90;38.10
3466;DHT22;1747;48.884;9.160;2022-08-04T15:14:24;46.50;39.50
3466;DHT22;1747;48.884;9.160;2022-08-04T15:16:51;47.10;39.80
3466;DHT22;1747;48.884;9.160;2022-08-04T15:19:19;47.60;39.40
3466;DHT22;1747;48.884;9.160;2022-08-04T15:21:46;48.00;37.40
3466;DHT22;1747;48.884;9.160;2022-08-04T15:24:15;48.00;37.40
3466;DHT22;1747;48.884;9.160;2022-08-04T15:26:46;48.40;37.60
3466;DHT22;1747;48.884;9.160;2022-08-04T15:29:16;48.50;38.60
3466;DHT22;1747;48.884;9.160;2022-08-04T15:31:45;48.60;36.50
3466;DHT22;1747;48.884;9.160;2022-08-04T15:34:13;48.20;37.10
3466;DHT22;1747;48.884;9.160;2022-08-04T15:36:50;48.10;37.80
3466;DHT22;1747;48.884;9.160;2022-08-04T15:39:27;48.20;36.90
3466;DHT22;1747;48.884;9.160;2022-08-04T15:42:00;48.60;39.00
3466;DHT22;1747;48.884;9.160;2022-08-04T15:44:57;49.10;37.40
3466;DHT22;1747;48.884;9.160;2022-08-04T15:47:31;48.50;37.40
3466;DHT22;1747;48.884;9.160;2022-08-04T15:50:06;47.80;37.20
3466;DHT22;1747;48.884;9.160;2022-08-04T15:52:59;47.60;37.70
3466;DHT22;1747;48.884;9.160;2022-08-04T15:55:31;47.10;38.20
3466;DHT22;1747;48.884;9.160;2022-08-04T15:57:59;46.20;38.50
3466;DHT22;1747;48.884;9.160;2022-08-04T16:00:27;45.20;39.40
3466;DHT22;1747;48.884;9.160;2022-08-04T16:02:54;44.50;39.90
3466;DHT22;1747;48.884;9.160;2022-08-04T16:05:34;44.20;39.90
3466;DHT22;1747;48.884;9.160;2022-08-04T16:08:14;43.90;39.70
3466;DHT22;1747;48.884;9.160;2022-08-04T16:10:44;43.50;39.70
3466;DHT22;1747;48.884;9.160;2022-08-04T16:13:12;43.20;40.20
3466;DHT22;1747;48.884;9.160;2022-08-04T16:15:43;43.00;40.40
3466;DHT22;1747;48.884;9.160;2022-08-04T16:18:18;42.70;40.70
3466;DHT22;1747;48.884;9.160;2022-08-04T16:20:46;42.50;41.30
3466;DHT22;1747;48.884;9.160;2022-08-04T16:23:36;42.30;40.80
3466;DHT22;1747;48.884;9.160;2022-08-04T16:26:07;42.10;41.20
3466;DHT22;1747;48.884;9.160;2022-08-04T16:28:39;42.00;44.60
3466;DHT22;1747;48.884;9.160;2022-08-04T16:31:08;41.90;44.40
3466;DHT22;1747;48.884;9.160;2022-08-04T16:33:35;41.80;43.60
3466;DHT22;1747;48.884;9.160;2022-08-04T16:36:05;41.70;41.70
3466;DHT22;1747;48.884;9.160;2022-08-04T16:39:00;41.50;42.00
3466;DHT22;1747;48.884;9.160;2022-08-04T16:41:44;41.20;42.40
3466;DHT22;1747;48.884;9.160;2022-08-04T16:44:28;41.10;42.80
3466;DHT22;1747;48.884;9.160;2022-08-04T16:46:56;41.00;42.70
3466;DHT22;1747;48.884;9.160;2022-08-04T16:49:24;40.80;42.60
3466;DHT22;1747;48.884;9.160;2022-08-04T16:51:51;40.70;43.00
3466;DHT22;1747;48.884;9.160;2022-08-04T16:54:21;40.80;44.40
3466;DHT22;1747;48.884;9.160;2022-08-04T16:56:50;40.70;43.20
3466;DHT22;1747;48.884;9.160;2022-08-04T16:59:16;40.70;42.80
3466;DHT22;1747;48.884;9.160;2022-08-04T17:01:48;40.60;44.10
3466;DHT22;1747;48.884;9.160;2022-08-04T17:04:15;40.50;43.00
3466;DHT22;1747;48.884;9.160;2022-08-04T17:06:43;40.30;43.50
3466;DHT22;1747;48.884;9.160;2022-08-04T17:09:12;40.20;43.60
3466;DHT22;1747;48.884;9.160;2022-08-04T17:11:40;40.10;43.20
3466;DHT22;1747;48.884;9.160;2022-08-04T17:14:09;40.00;42.80
3466;DHT22;1747;48.884;9.160;2022-08-04T17:16:37;39.90;42.70
3466;DHT22;1747;48.884;9.160;2022-08-04T17:19:05;39.70;43.80
3466;DHT22;1747;48.884;9.160;2022-08-04T17:21:34;39.30;46.70
3466;DHT22;1747;48.884;9.160;2022-08-04T17:24:03;38.90;46.60
3466;DHT22;1747;48.884;9.160;2022-08-04T17:26:33;38.70;46.70
3466;DHT22;1747;48.884;9.160;2022-08-04T17:29:00;38.70;47.00
3466;DHT22;1747;48.884;9.160;2022-08-04T17:31:30;38.60;47.50
3466;DHT22;1747;48.884;9.160;2022-08-04T17:33:59;38.60;47.00
3466;DHT22;1747;48.884;9.160;2022-08-04T17:36:28;38.40;48.20
3466;DHT22;1747;48.884;9.160;2022-08-04T17:38:57;38.40;47.60
3466;DHT22;1747;48.884;9.160;2022-08-04T17:41:26;38.30;47.70
3466;DHT22;1747;48.884;9.160;2022-08-04T17:43:55;38.20;49.00
3466;DHT22;1747;48.884;9.160;2022-08-04T17:46:24;38.10;48.50
3466;DHT22;1747;48.884;9.160;2022-08-04T17:49:02;38.00;48.10
3466;DHT22;1747;48.884;9.160;2022-08-04T17:51:44;38.00;48.90
3466;DHT22;1747;48.884;9.160;2022-08-04T17:54:14;37.90;50.40
3466;DHT22;1747;48.884;9.160;2022-08-04T17:56:42;37.70;50.80
3466;DHT22;1747;48.884;9.160;2022-08-04T17:59:15;37.60;51.40
3466;DHT22;1747;48.884;9.160;2022-08-04T18:01:53;37.50;51.40
3466;DHT22;1747;48.884;9.160;2022-08-04T18:04:33;37.40;52.00
3466;DHT22;1747;48.884;9.160;2022-08-04T18:07:04;37.30;54.50
3466;DHT22;1747;48.884;9.160;2022-08-04T18:09:33;37.10;57.50
3466;DHT22;1747;48.884;9.160;2022-08-04T18:12:01;37.00;57.80
3466;DHT22;1747;48.884;9.160;2022-08-04T18:14:40;36.80;58.50
3466;DHT22;1747;48.884;9.160;2022-08-04T18:17:08;36.60;59.90
3466;DHT22;1747;48.884;9.160;2022-08-04T18:19:37;36.30;59.30
3466;DHT22;1747;48.884;9.160;2022-08-04T18:22:04;36.10;59.80
3466;DHT22;1747;48.884;9.160;2022-08-04T18:24:33;36.00;59.80
3466;DHT22;1747;48.884;9.160;2022-08-04T18:27:00;35.80;59.20
3466;DHT22;1747;48.884;9.160;2022-08-04T18:29:27;35.70;59.30